Terminal Aerodrome Forecast
Issued by NWS Pueblo, CO

Home | Current Version | Previous Version | Text Only | Print | Product List | Glossary On
Versions: 1 2 3 4 5 6 7 8 9 10 11 12 13 14 15 16 17 18 19 20 21 22 23 24 25 26 27 28 29 30 31 32 33 34 35 36 37
000
FTUS45 KPUB 011141
TAFALS
TAF
KALS 011141Z 0112/0212 VRB05KT P6SM SCT030 BKN120
     FM011500 VRB05KT P6SM VCSH SCT030 BKN040
     FM012000 07008KT P6SM VCTS SCT040CB BKN070
     FM020500 VRB05KT P6SM SCT040 BKN100=

USA.gov is the U.S. government's official web portal to all federal, state and local government web resources and services.